createdAt,value
2022-10-15T00:01:14.051Z,91.13
2022-10-15T00:03:43.254Z,91.60
2022-10-15T00:06:17.027Z,91.71
2022-10-15T00:08:45.104Z,92.06
2022-10-15T00:11:18.927Z,92.09
2022-10-15T00:13:46.373Z,92.43
2022-10-15T00:16:16.883Z,92.03
2022-10-15T00:18:44.112Z,91.75
2022-10-15T00:21:13.250Z,92.62
2022-10-15T00:23:40.443Z,92.72
2022-10-15T00:26:22.368Z,92.56
2022-10-15T00:28:52.039Z,92.53
2022-10-15T00:31:24.951Z,92.42
2022-10-15T00:33:53.218Z,92.42
2022-10-15T00:36:23.496Z,92.77
2022-10-15T00:38:51.569Z,92.05
2022-10-15T00:41:24.828Z,92.41
2022-10-15T00:43:53.495Z,92.66
2022-10-15T00:46:31.093Z,92.19
2022-10-15T00:49:24.650Z,92.51
2022-10-15T00:52:03.932Z,91.92
2022-10-15T00:54:35.086Z,92.46
2022-10-15T00:57:02.193Z,92.58
2022-10-15T00:59:31.776Z,92.38
2022-10-15T01:02:00.993Z,92.93
2022-10-15T01:04:29.567Z,92.26
2022-10-15T01:06:56.724Z,92.25
2022-10-15T01:09:24.206Z,92.17
2022-10-15T01:11:54.818Z,92.35
2022-10-15T01:14:53.380Z,91.80
2022-10-15T01:17:28.224Z,91.91
2022-10-15T01:19:58.177Z,92.26
2022-10-15T01:22:34.104Z,92.34
2022-10-15T01:25:15.470Z,92.30
2022-10-15T01:27:46.324Z,92.74
2022-10-15T01:30:24.538Z,92.15
2022-10-15T01:33:10.707Z,92.59
2022-10-15T01:36:05.562Z,92.16
2022-10-15T01:38:44.015Z,92.53
2022-10-15T01:41:36.559Z,92.34
2022-10-15T01:44:34.417Z,92.35
2022-10-15T01:47:28.093Z,92.10
2022-10-15T01:49:56.687Z,92.39
2022-10-15T01:52:28.095Z,92.95
2022-10-15T01:54:56.333Z,92.90
2022-10-15T01:57:26.486Z,93.03
2022-10-15T01:59:54.542Z,92.67
2022-10-15T02:02:24.220Z,93.10
2022-10-15T02:04:51.693Z,93.27
2022-10-15T02:07:38.305Z,92.63
2022-10-15T02:10:08.277Z,92.62
2022-10-15T02:13:13.112Z,92.64
2022-10-15T02:15:56.682Z,92.38
2022-10-15T02:18:44.937Z,92.79
2022-10-15T02:21:27.374Z,93.03
2022-10-15T02:24:06.711Z,93.53
2022-10-15T02:26:35.383Z,92.66
2022-10-15T02:29:06.255Z,92.75
2022-10-15T02:31:35.628Z,92.97
2022-10-15T02:34:06.525Z,93.06
2022-10-15T02:36:34.403Z,92.82
2022-10-15T02:39:07.366Z,93.30
2022-10-15T02:41:36.132Z,93.22
2022-10-15T02:44:04.317Z,93.36
2022-10-15T02:46:31.853Z,93.17
2022-10-15T02:48:59.568Z,93.21
2022-10-15T02:51:26.933Z,93.35
2022-10-15T02:53:54.105Z,93.22
2022-10-15T02:56:21.294Z,93.56
2022-10-15T02:58:48.824Z,93.29
2022-10-15T03:01:16.130Z,93.50
2022-10-15T03:03:43.416Z,93.36
2022-10-15T03:06:10.843Z,93.69
2022-10-15T03:08:38.107Z,93.54
2022-10-15T03:11:06.048Z,93.54
2022-10-15T03:13:36.688Z,93.69
2022-10-15T03:16:11.236Z,93.59
2022-10-15T03:18:41.100Z,93.95
2022-10-15T03:21:10.282Z,93.38
2022-10-15T03:23:38.598Z,93.74
2022-10-15T03:26:10.760Z,93.20
2022-10-15T03:28:38.576Z,93.47
2022-10-15T03:31:06.833Z,93.53
2022-10-15T03:33:34.111Z,93.56
2022-10-15T03:36:02.174Z,93.67
2022-10-15T03:38:29.579Z,93.38
2022-10-15T03:40:58.053Z,93.20
2022-10-15T03:43:38.936Z,93.34
2022-10-15T03:46:09.653Z,93.54
2022-10-15T03:48:41.145Z,93.19
2022-10-15T03:51:10.364Z,93.35
2022-10-15T03:53:38.412Z,93.10
2022-10-15T03:56:07.433Z,93.76
2022-10-15T03:58:38.332Z,93.76
2022-10-15T04:01:11.277Z,93.65
2022-10-15T04:03:39.135Z,93.73
2022-10-15T04:06:06.631Z,93.84
2022-10-15T04:08:35.202Z,93.60
2022-10-15T04:11:13.464Z,93.80
2022-10-15T04:13:40.772Z,94.06
2022-10-15T04:16:08.503Z,93.44
2022-10-15T04:18:35.824Z,93.59
2022-10-15T04:21:03.146Z,93.69
2022-10-15T04:23:33.405Z,94.06
2022-10-15T04:26:29.781Z,93.65
2022-10-15T04:29:00.291Z,93.93
2022-10-15T04:31:28.503Z,93.83
2022-10-15T04:33:57.463Z,93.68
2022-10-15T04:36:24.871Z,94.07
2022-10-15T04:39:00.048Z,94.29
2022-10-15T04:41:34.843Z,94.16
2022-10-15T04:44:08.882Z,94.15
2022-10-15T04:46:37.673Z,94.15
2022-10-15T04:49:21.097Z,94.36
2022-10-15T04:51:48.313Z,94.26
2022-10-15T04:54:21.387Z,93.90
2022-10-15T04:57:00.194Z,94.33
2022-10-15T04:59:27.860Z,94.10
2022-10-15T05:02:24.392Z,94.07
2022-10-15T05:04:56.805Z,94.15
2022-10-15T05:07:24.852Z,94.22
2022-10-15T05:09:53.924Z,93.76
2022-10-15T05:12:21.433Z,93.96
2022-10-15T05:14:48.638Z,93.89
2022-10-15T05:17:22.074Z,93.77
2022-10-15T05:19:49.654Z,93.67
2022-10-15T05:22:21.244Z,94.20
2022-10-15T05:24:55.094Z,94.15
2022-10-15T05:27:28.101Z,93.82
2022-10-15T05:29:55.403Z,93.76
2022-10-15T05:32:27.660Z,93.84
2022-10-15T05:34:54.976Z,94.30
2022-10-15T05:37:23.001Z,93.86
2022-10-15T05:39:50.376Z,93.93
2022-10-15T05:42:17.637Z,94.07
2022-10-15T05:44:52.371Z,94.05
2022-10-15T05:47:21.156Z,93.81
2022-10-15T05:49:48.743Z,93.85
2022-10-15T05:52:23.557Z,94.01
2022-10-15T05:55:09.560Z,93.98
2022-10-15T05:57:37.008Z,94.33
2022-10-15T06:00:06.600Z,94.18
2022-10-15T06:02:39.035Z,93.98
2022-10-15T06:05:06.920Z,93.82
2022-10-15T06:07:34.348Z,93.40
2022-10-15T06:10:05.753Z,93.66
2022-10-15T06:12:34.643Z,93.38
2022-10-15T06:15:02.006Z,94.15
2022-10-15T06:17:29.147Z,93.97
2022-10-15T06:19:56.195Z,93.70
2022-10-15T06:22:23.489Z,94.13
2022-10-15T06:24:50.844Z,93.97
2022-10-15T06:27:17.938Z,93.68
2022-10-15T06:29:45.117Z,93.43
2022-10-15T06:32:12.710Z,93.53
2022-10-15T06:34:43.875Z,93.42
2022-10-15T06:37:11.163Z,93.53
2022-10-15T06:39:38.433Z,93.54
2022-10-15T06:42:05.574Z,93.31
2022-10-15T06:44:42.245Z,93.33
2022-10-15T06:47:10.351Z,93.21
2022-10-15T06:49:37.593Z,93.34
2022-10-15T06:52:04.906Z,93.45
2022-10-15T06:54:32.167Z,93.20
2022-10-15T06:56:59.258Z,92.92
2022-10-15T06:59:26.445Z,93.04
2022-10-15T07:01:54.848Z,93.05
2022-10-15T07:04:24.513Z,93.31
2022-10-15T07:06:51.949Z,93.35
2022-10-15T07:09:20.738Z,93.33
2022-10-15T07:11:47.882Z,93.26
2022-10-15T07:14:14.944Z,93.54
2022-10-15T07:16:42.312Z,92.97
2022-10-15T07:19:09.399Z,92.78
2022-10-15T07:21:36.896Z,92.98
2022-10-15T07:24:04.414Z,93.09
2022-10-15T07:26:31.868Z,93.35
2022-10-15T07:29:03.802Z,93.19
2022-10-15T07:31:31.375Z,93.05
2022-10-15T07:33:58.827Z,92.83
2022-10-15T07:36:26.887Z,92.62
2022-10-15T07:38:54.015Z,92.65
2022-10-15T07:41:22.163Z,92.56
2022-10-15T07:43:52.458Z,92.45
2022-10-15T07:46:19.643Z,92.20
2022-10-15T07:48:48.487Z,92.32
2022-10-15T07:51:15.675Z,92.14
2022-10-15T07:53:44.362Z,91.93
2022-10-15T07:56:12.705Z,91.53
2022-10-15T07:58:40.613Z,92.14
2022-10-15T08:01:10.146Z,91.96
2022-10-15T08:03:38.497Z,91.51
2022-10-15T08:06:07.658Z,91.30
2022-10-15T08:08:35.786Z,91.33
2022-10-15T08:11:08.384Z,90.65
2022-10-15T08:13:35.587Z,91.26
2022-10-15T08:16:03.215Z,91.14
2022-10-15T08:18:30.269Z,90.47
2022-10-15T08:21:00.794Z,90.71
2022-10-15T08:23:28.669Z,90.21
2022-10-15T08:25:58.578Z,89.77
2022-10-15T08:28:26.393Z,89.08
2022-10-15T08:30:53.873Z,89.31
2022-10-15T08:33:21.119Z,89.29
2022-10-15T08:35:48.384Z,88.89
2022-10-15T08:38:19.018Z,88.61
2022-10-15T08:40:55.735Z,88.50
2022-10-15T08:43:40.787Z,88.10
2022-10-15T08:46:21.115Z,87.88
2022-10-15T08:48:53.688Z,88.13
2022-10-15T08:51:24.476Z,88.11
2022-10-15T08:53:58.543Z,87.42
2022-10-15T08:56:34.263Z,87.20
2022-10-15T08:59:13.967Z,87.26
2022-10-15T09:01:59.259Z,88.10
2022-10-15T09:04:47.575Z,87.81
2022-10-15T09:07:33.563Z,87.56
2022-10-15T09:10:52.221Z,87.85
2022-10-15T09:13:32.079Z,87.46
2022-10-15T09:16:05.653Z,87.43
2022-10-15T09:18:36.584Z,87.71
2022-10-15T09:21:06.005Z,88.03
2022-10-15T09:23:34.869Z,87.40
2022-10-15T09:26:02.257Z,87.90
2022-10-15T09:28:39.886Z,88.05
2022-10-15T09:31:10.535Z,87.88
2022-10-15T09:33:47.102Z,87.59
2022-10-15T09:36:34.418Z,87.28
2022-10-15T09:39:23.192Z,87.16
2022-10-15T09:41:54.186Z,86.81
2022-10-15T09:44:24.863Z,86.26
2022-10-15T09:46:52.443Z,86.22
2022-10-15T09:49:31.261Z,86.21
2022-10-15T09:52:11.942Z,85.73
2022-10-15T09:55:30.013Z,85.56
2022-10-15T09:58:02.325Z,85.61
2022-10-15T10:00:59.907Z,84.84
2022-10-15T10:03:36.605Z,84.44
2022-10-15T10:06:14.760Z,84.05
2022-10-15T10:08:52.544Z,83.45
2022-10-15T10:11:21.188Z,83.98
2022-10-15T10:13:48.475Z,83.73
2022-10-15T10:16:18.559Z,83.51
2022-10-15T10:19:07.030Z,83.38
2022-10-15T10:21:37.658Z,82.95
2022-10-15T10:24:30.410Z,82.79
2022-10-15T10:27:02.713Z,83.04
2022-10-15T10:29:34.801Z,82.44
2022-10-15T10:32:19.487Z,82.44
2022-10-15T10:34:52.283Z,82.63
2022-10-15T10:37:21.170Z,82.35
2022-10-15T10:39:57.690Z,82.24
2022-10-15T10:42:24.981Z,82.33
2022-10-15T10:44:53.919Z,82.36
2022-10-15T10:47:22.322Z,82.43
2022-10-15T10:49:58.471Z,82.91
2022-10-15T10:52:27.136Z,83.01
2022-10-15T10:55:01.690Z,82.89
2022-10-15T10:57:40.759Z,82.79
2022-10-15T11:00:12.334Z,82.89
2022-10-15T11:02:44.093Z,82.75
2022-10-15T11:05:13.295Z,82.64
2022-10-15T11:08:14.506Z,83.25
2022-10-15T11:10:58.927Z,82.94
2022-10-15T11:13:41.235Z,82.98
2022-10-15T11:16:15.335Z,83.02
2022-10-15T11:19:19.856Z,83.43
2022-10-15T11:21:56.290Z,83.06
2022-10-15T11:24:33.523Z,82.98
2022-10-15T11:27:27.595Z,83.15
2022-10-15T11:30:29.773Z,82.72
2022-10-15T11:33:25.266Z,82.43
2022-10-15T11:36:11.224Z,82.34
2022-10-15T11:38:46.448Z,82.56
2022-10-15T11:41:28.639Z,82.14
2022-10-15T11:44:39.310Z,81.74
2022-10-15T11:47:47.639Z,81.94
2022-10-15T11:50:41.574Z,81.04
2022-10-15T11:53:33.662Z,81.30
2022-10-15T11:56:21.116Z,80.94
2022-10-15T11:59:00.905Z,81.62
2022-10-15T12:01:38.493Z,81.08
2022-10-15T12:04:32.700Z,81.40
2022-10-15T12:07:05.289Z,81.61
2022-10-15T12:09:37.726Z,81.82
2022-10-15T12:12:12.534Z,82.05
2022-10-15T12:14:39.673Z,82.15
2022-10-15T12:17:17.642Z,82.45
2022-10-15T12:19:59.520Z,82.37
2022-10-15T12:22:40.567Z,81.97
2022-10-15T12:25:46.815Z,82.10
2022-10-15T12:28:20.982Z,82.06
2022-10-15T12:31:03.297Z,81.92
2022-10-15T12:33:45.533Z,82.20
2022-10-15T12:36:30.522Z,82.27
2022-10-15T12:39:16.215Z,81.61
2022-10-15T12:41:55.286Z,81.23
2022-10-15T12:44:33.856Z,81.21
2022-10-15T12:47:01.219Z,81.07
2022-10-15T12:49:30.582Z,80.69
2022-10-15T12:51:59.644Z,80.63
2022-10-15T12:54:34.495Z,80.76
2022-10-15T12:57:05.258Z,80.98
2022-10-15T12:59:44.784Z,80.67
2022-10-15T13:02:34.148Z,81.22
2022-10-15T13:05:01.668Z,81.02
2022-10-15T13:07:28.988Z,81.43
2022-10-15T13:09:56.566Z,81.47
2022-10-15T13:12:29.029Z,81.22
2022-10-15T13:15:04.053Z,80.83
2022-10-15T13:17:34.148Z,81.12
2022-10-15T13:20:08.204Z,80.61
2022-10-15T13:22:37.467Z,81.07
2022-10-15T13:25:05.187Z,80.97
2022-10-15T13:27:38.024Z,81.33
2022-10-15T13:30:14.486Z,81.63
2022-10-15T13:32:53.053Z,81.33
2022-10-15T13:35:26.407Z,81.74
2022-10-15T13:37:53.665Z,81.53
2022-10-15T13:40:29.680Z,82.24
2022-10-15T13:43:17.048Z,81.89
2022-10-15T13:45:55.258Z,82.32
2022-10-15T13:48:25.311Z,82.32
2022-10-15T13:51:04.988Z,82.55
2022-10-15T13:53:37.956Z,82.37
2022-10-15T13:56:36.291Z,82.45
2022-10-15T13:59:04.283Z,81.96
2022-10-15T14:01:34.699Z,82.12
2022-10-15T14:04:04.212Z,82.05
2022-10-15T14:06:34.756Z,82.08
2022-10-15T14:09:28.978Z,82.43
2022-10-15T14:12:00.669Z,82.29
2022-10-15T14:14:42.205Z,82.67
2022-10-15T14:17:17.595Z,82.94
2022-10-15T14:20:08.254Z,82.86
2022-10-15T14:22:41.394Z,82.76
2022-10-15T14:27:46.614Z,83.06
2022-10-15T14:30:21.086Z,83.38
2022-10-15T14:32:54.313Z,83.24
2022-10-15T14:35:31.242Z,83.65
2022-10-15T14:38:04.033Z,83.93
2022-10-15T14:40:31.543Z,84.35
2022-10-15T14:43:17.101Z,84.87
2022-10-15T14:45:58.602Z,85.15
2022-10-15T14:48:36.486Z,85.45
2022-10-15T14:51:06.748Z,85.38
2022-10-15T14:53:37.474Z,85.80
2022-10-15T14:56:14.389Z,86.09
2022-10-15T14:58:52.197Z,86.15
2022-10-15T15:01:21.008Z,86.40
2022-10-15T15:03:51.132Z,86.33
2022-10-15T15:06:18.926Z,86.57
2022-10-15T15:08:46.873Z,86.87
2022-10-15T15:11:18.386Z,87.18
2022-10-15T15:13:46.582Z,87.36
2022-10-15T15:16:15.251Z,87.54
2022-10-15T15:18:44.202Z,87.46
2022-10-15T15:21:15.449Z,87.53
2022-10-15T15:23:43.535Z,87.75
2022-10-15T15:26:10.807Z,88.19
2022-10-15T15:28:38.319Z,88.17
2022-10-15T15:31:08.642Z,88.66
2022-10-15T15:33:35.707Z,88.75
2022-10-15T15:36:07.938Z,88.62
2022-10-15T15:41:14.795Z,89.25
2022-10-15T15:43:43.054Z,89.08
2022-10-15T15:46:10.861Z,89.79
2022-10-15T15:48:38.629Z,89.63
2022-10-15T15:51:10.353Z,89.87
2022-10-15T15:53:37.431Z,90.02
2022-10-15T15:56:04.854Z,90.27
2022-10-15T15:58:32.163Z,90.40
2022-10-15T16:00:59.643Z,90.53
2022-10-15T16:03:27.116Z,90.77
2022-10-15T16:05:54.576Z,90.89
2022-10-15T16:08:21.967Z,90.85
2022-10-15T16:10:49.262Z,90.94
2022-10-15T16:13:16.546Z,91.29
2022-10-15T16:15:43.672Z,91.28
2022-10-15T16:18:12.360Z,91.24
2022-10-15T16:20:46.375Z,91.50
2022-10-15T16:23:16.371Z,91.85
2022-10-15T16:25:43.704Z,91.79
2022-10-15T16:28:11.014Z,92.02
2022-10-15T16:30:38.117Z,91.98
2022-10-15T16:35:34.327Z,91.84
2022-10-15T16:38:01.585Z,92.21
2022-10-15T16:40:28.763Z,92.39
2022-10-15T16:42:55.904Z,92.50
2022-10-15T16:45:23.107Z,92.61
2022-10-15T16:47:50.331Z,92.73
2022-10-15T16:50:17.612Z,92.74
2022-10-15T16:52:44.834Z,92.76
2022-10-15T16:55:12.367Z,92.92
2022-10-15T16:57:39.724Z,93.04
2022-10-15T17:00:07.404Z,93.26
2022-10-15T17:02:34.526Z,93.18
2022-10-15T17:05:01.776Z,93.07
2022-10-15T17:07:28.897Z,93.04
2022-10-15T17:09:56.923Z,93.16
2022-10-15T17:12:24.355Z,93.08
2022-10-15T17:14:52.235Z,93.31
2022-10-15T17:17:20.058Z,92.97
2022-10-15T17:19:47.553Z,93.48
2022-10-15T17:22:14.713Z,93.57
2022-10-15T17:24:41.884Z,93.42
2022-10-15T17:27:09.033Z,93.41
2022-10-15T17:29:36.309Z,93.52
2022-10-15T17:32:04.327Z,93.46
2022-10-15T17:34:31.594Z,93.40
2022-10-15T17:36:58.694Z,93.57
2022-10-15T17:39:25.868Z,93.62
2022-10-15T17:41:53.023Z,93.52
2022-10-15T17:44:20.678Z,93.63
2022-10-15T17:49:18.955Z,93.60
2022-10-15T17:51:46.701Z,94.18
2022-10-15T17:54:14.326Z,93.84
2022-10-15T17:56:41.633Z,93.89
2022-10-15T17:59:11.864Z,94.20
2022-10-15T18:04:31.039Z,93.85
2022-10-15T18:06:58.403Z,94.18
2022-10-15T18:09:27.440Z,93.90
2022-10-15T18:12:01.288Z,93.97
2022-10-15T18:14:30.876Z,94.04
2022-10-15T18:16:58.075Z,94.36
2022-10-15T18:19:26.959Z,94.09
2022-10-15T18:21:54.454Z,94.40
2022-10-15T18:24:23.622Z,94.29
2022-10-15T18:26:51.545Z,94.30
2022-10-15T18:29:19.164Z,94.38
2022-10-15T18:31:47.410Z,94.78
2022-10-15T18:34:14.634Z,94.40
2022-10-15T18:36:43.846Z,94.33
2022-10-15T18:39:11.405Z,94.49
2022-10-15T18:41:40.349Z,94.74
2022-10-15T18:44:14.945Z,94.44
2022-10-15T18:46:45.195Z,94.70
2022-10-15T18:49:13.097Z,95.14
2022-10-15T18:51:40.407Z,95.28
2022-10-15T18:54:08.857Z,95.62
2022-10-15T18:56:36.230Z,96.30
2022-10-15T18:59:03.516Z,96.79
2022-10-15T19:01:39.298Z,97.06
2022-10-15T19:04:10.433Z,96.85
2022-10-15T19:06:41.276Z,97.10
2022-10-15T19:09:12.334Z,97.02
2022-10-15T19:11:41.373Z,97.19
2022-10-15T19:14:09.012Z,97.20
2022-10-15T19:16:36.777Z,97.11
2022-10-15T19:19:08.875Z,96.97
2022-10-15T19:21:37.730Z,96.77
2022-10-15T19:24:05.818Z,96.68
2022-10-15T19:26:33.123Z,97.05
2022-10-15T19:29:02.379Z,96.89
2022-10-15T19:31:33.733Z,96.73
2022-10-15T19:34:01.088Z,96.51
2022-10-15T19:36:35.219Z,96.47
2022-10-15T19:39:12.092Z,96.29
2022-10-15T19:41:41.377Z,96.37
2022-10-15T19:44:09.516Z,96.17
2022-10-15T19:46:37.731Z,95.98
2022-10-15T19:49:07.915Z,96.03
2022-10-15T19:51:35.303Z,95.92
2022-10-15T19:54:02.567Z,96.12
2022-10-15T19:56:32.243Z,95.90
2022-10-15T19:59:07.073Z,95.82
2022-10-15T20:01:34.574Z,95.83
2022-10-15T20:04:05.918Z,95.74
2022-10-15T20:06:35.705Z,95.54
2022-10-15T20:09:03.713Z,95.76
2022-10-15T20:11:31.209Z,95.83
2022-10-15T20:14:01.914Z,95.64
2022-10-15T20:16:32.826Z,95.70
2022-10-15T20:19:03.094Z,95.69
2022-10-15T20:21:32.313Z,95.48
2022-10-15T20:23:59.956Z,95.39
2022-10-15T20:26:27.167Z,95.09
2022-10-15T20:28:54.511Z,95.55
2022-10-15T20:31:21.935Z,95.20
2022-10-15T20:33:49.685Z,94.78
2022-10-15T20:36:23.541Z,94.73
2022-10-15T20:38:51.724Z,94.69
2022-10-15T20:41:19.157Z,94.50
2022-10-15T20:43:54.639Z,94.50
2022-10-15T20:46:33.058Z,94.33
2022-10-15T20:49:09.517Z,94.32
2022-10-15T20:51:40.073Z,94.22
2022-10-15T20:54:07.273Z,94.37
2022-10-15T20:56:34.713Z,94.25
2022-10-15T20:59:02.134Z,94.31
2022-10-15T21:01:29.365Z,94.36
2022-10-15T21:03:56.718Z,94.48
2022-10-15T21:06:24.000Z,94.32
2022-10-15T21:08:51.186Z,94.42
2022-10-15T21:11:18.735Z,94.02
2022-10-15T21:13:45.863Z,94.27
2022-10-15T21:16:13.576Z,94.35
2022-10-15T21:18:40.716Z,94.06
2022-10-15T21:21:10.472Z,94.35
2022-10-15T21:23:39.192Z,94.15
2022-10-15T21:26:07.276Z,94.26
2022-10-15T21:28:35.489Z,93.82
2022-10-15T21:31:10.263Z,94.10
2022-10-15T21:33:37.817Z,94.14
2022-10-15T21:36:15.747Z,93.72
2022-10-15T21:38:42.992Z,93.63
2022-10-15T21:41:10.632Z,93.96
2022-10-15T21:43:38.393Z,93.72
2022-10-15T21:46:11.953Z,93.97
2022-10-15T21:48:41.041Z,93.39
2022-10-15T21:51:14.771Z,93.46
2022-10-15T21:53:43.132Z,93.61
2022-10-15T21:56:11.481Z,93.41
2022-10-15T21:58:40.161Z,93.39
2022-10-15T22:01:25.219Z,93.27
2022-10-15T22:03:57.862Z,93.17
2022-10-15T22:06:26.704Z,93.24
2022-10-15T22:08:54.808Z,93.13
2022-10-15T22:14:02.140Z,93.17
2022-10-15T22:16:30.094Z,92.99
2022-10-15T22:18:57.701Z,93.35
2022-10-15T22:21:29.736Z,93.42
2022-10-15T22:24:06.724Z,93.04
2022-10-15T22:26:36.775Z,93.06
2022-10-15T22:29:06.561Z,93.33
2022-10-15T22:31:34.673Z,93.14
2022-10-15T22:34:02.598Z,93.11
2022-10-15T22:36:31.312Z,92.82
2022-10-15T22:39:05.619Z,93.14
2022-10-15T22:41:40.154Z,93.37
2022-10-15T22:44:08.923Z,92.93
2022-10-15T22:46:38.845Z,93.32
2022-10-15T22:49:08.157Z,93.47
2022-10-15T22:51:35.876Z,93.83
2022-10-15T22:54:02.992Z,93.93
2022-10-15T22:56:30.652Z,93.38
2022-10-15T22:58:58.896Z,93.54
2022-10-15T23:01:28.413Z,93.92
2022-10-15T23:04:01.841Z,94.08
2022-10-15T23:06:30.337Z,94.25
2022-10-15T23:08:58.263Z,94.27
2022-10-15T23:11:34.613Z,94.54
2022-10-15T23:14:11.605Z,94.37
2022-10-15T23:16:41.938Z,94.78
2022-10-15T23:19:16.648Z,94.35
2022-10-15T23:22:02.892Z,94.93
2022-10-15T23:24:30.203Z,95.01
2022-10-15T23:26:57.532Z,94.98
2022-10-15T23:29:26.285Z,94.91
2022-10-15T23:31:54.905Z,95.32
2022-10-15T23:34:24.874Z,95.31
2022-10-15T23:36:53.057Z,95.74
2022-10-15T23:39:23.808Z,95.27
2022-10-15T23:41:51.159Z,95.71
2022-10-15T23:44:18.742Z,95.63
2022-10-15T23:46:46.623Z,95.54
2022-10-15T23:49:14.285Z,95.95
2022-10-15T23:51:41.611Z,95.56
2022-10-15T23:54:18.055Z,96.25
2022-10-15T23:56:47.097Z,96.39
2022-10-15T23:59:15.153Z,96.10
